createdAt,value
2023-05-31T00:01:35.968Z,3.60
2023-05-31T00:04:03.677Z,3.55
2023-05-31T00:06:31.179Z,4.15
2023-05-31T00:08:57.769Z,3.90
2023-05-31T00:11:24.357Z,3.83
2023-05-31T00:13:50.955Z,4.07
2023-05-31T00:16:45.780Z,3.10
2023-05-31T00:19:04.225Z,3.70
2023-05-31T00:21:32.112Z,3.83
2023-05-31T00:23:58.747Z,3.45
2023-05-31T00:26:26.166Z,3.67
2023-05-31T00:28:52.897Z,3.65
2023-05-31T00:31:19.713Z,3.30
2023-05-31T00:33:46.371Z,3.55
2023-05-31T00:36:13.181Z,3.75
2023-05-31T00:38:39.825Z,3.35
2023-05-31T00:41:09.438Z,3.08
2023-05-31T00:43:36.141Z,3.75
2023-05-31T00:46:03.780Z,2.72
2023-05-31T00:48:31.150Z,3.42
2023-05-31T00:50:58.463Z,3.15
2023-05-31T00:53:25.356Z,2.70
2023-05-31T00:55:53.459Z,2.92
2023-05-31T00:58:20.897Z,3.08
2023-05-31T01:00:47.932Z,3.50
2023-05-31T01:03:16.073Z,2.90
2023-05-31T01:05:42.918Z,2.85
2023-05-31T01:08:09.495Z,2.80
2023-05-31T01:10:36.526Z,3.53
2023-05-31T01:13:21.714Z,3.03
2023-05-31T01:15:58.147Z,3.22
2023-05-31T01:18:46.082Z,2.72
2023-05-31T01:21:13.052Z,2.95
2023-05-31T01:24:01.419Z,3.10
2023-05-31T01:26:39.109Z,3.17
2023-05-31T01:29:13.082Z,3.20
2023-05-31T01:31:41.443Z,2.78
2023-05-31T01:34:09.289Z,2.95
2023-05-31T01:36:36.669Z,2.70
2023-05-31T01:39:04.654Z,2.97
2023-05-31T01:41:34.357Z,3.15
2023-05-31T01:44:01.753Z,3.55
2023-05-31T01:46:28.750Z,3.45
2023-05-31T01:48:56.616Z,2.83
2023-05-31T01:51:23.505Z,2.95
2023-05-31T01:53:50.403Z,3.05
2023-05-31T01:56:17.586Z,2.40
2023-05-31T01:58:48.850Z,3.65
2023-05-31T02:01:17.537Z,2.60
2023-05-31T02:03:44.630Z,3.30
2023-05-31T02:06:14.280Z,2.90
2023-05-31T02:08:43.535Z,2.72
2023-05-31T02:11:10.255Z,2.70
2023-05-31T02:13:36.835Z,2.97
2023-05-31T02:16:06.928Z,2.97
2023-05-31T02:18:33.519Z,2.83
2023-05-31T02:21:00.330Z,3.13
2023-05-31T02:23:27.365Z,2.85
2023-05-31T02:25:54.331Z,2.60
2023-05-31T02:28:21.081Z,2.72
2023-05-31T02:31:02.178Z,3.20
2023-05-31T02:33:29.181Z,2.90
2023-05-31T02:35:58.187Z,3.40
2023-05-31T02:38:25.279Z,2.55
2023-05-31T02:40:51.963Z,2.90
2023-05-31T02:43:18.608Z,3.10
2023-05-31T02:45:45.546Z,3.17
2023-05-31T02:48:12.204Z,2.72
2023-05-31T02:50:38.837Z,2.53
2023-05-31T02:53:05.533Z,2.92
2023-05-31T02:55:33.126Z,2.60
2023-05-31T02:58:00.219Z,2.83
2023-05-31T03:00:30.031Z,2.63
2023-05-31T03:02:56.711Z,3.05
2023-05-31T03:05:24.502Z,3.33
2023-05-31T03:07:51.513Z,2.80
2023-05-31T03:10:18.096Z,2.97
2023-05-31T03:12:44.782Z,2.92
2023-05-31T03:15:11.502Z,3.22
2023-05-31T03:17:38.480Z,3.17
2023-05-31T03:20:09.912Z,2.72
2023-05-31T03:22:38.099Z,3.10
2023-05-31T03:25:05.948Z,2.95
2023-05-31T03:27:32.969Z,3.33
2023-05-31T03:29:59.655Z,3.05
2023-05-31T03:32:26.635Z,3.63
2023-05-31T03:34:53.401Z,3.28
2023-05-31T03:37:20.006Z,3.63
2023-05-31T03:39:46.698Z,3.45
2023-05-31T03:42:13.951Z,3.40
2023-05-31T03:44:40.711Z,3.47
2023-05-31T03:47:07.956Z,3.78
2023-05-31T03:49:34.601Z,3.78
2023-05-31T03:52:01.307Z,3.45
2023-05-31T03:54:30.137Z,3.17
2023-05-31T03:56:56.729Z,3.17
2023-05-31T03:59:23.302Z,3.17
2023-05-31T04:01:49.898Z,3.80
2023-05-31T04:04:16.668Z,4.20
2023-05-31T04:06:43.554Z,3.00
2023-05-31T04:09:10.146Z,2.97
2023-05-31T04:11:36.775Z,3.35
2023-05-31T04:14:03.355Z,3.47
2023-05-31T04:16:30.085Z,2.88
2023-05-31T04:18:56.906Z,3.40
2023-05-31T04:21:23.468Z,3.53
2023-05-31T04:23:51.383Z,2.97
2023-05-31T04:26:20.116Z,3.30
2023-05-31T04:28:53.030Z,3.47
2023-05-31T04:31:20.137Z,3.55
2023-05-31T04:33:47.196Z,3.28
2023-05-31T04:36:13.757Z,3.60
2023-05-31T04:38:40.464Z,2.92
2023-05-31T04:41:07.285Z,3.33
2023-05-31T04:43:33.875Z,3.22
2023-05-31T04:46:01.637Z,3.10
2023-05-31T04:48:28.940Z,3.40
2023-05-31T04:50:56.344Z,3.83
2023-05-31T04:53:24.869Z,3.22
2023-05-31T04:55:52.793Z,3.13
2023-05-31T04:58:20.461Z,3.17
2023-05-31T05:00:47.949Z,2.80
2023-05-31T05:03:15.242Z,3.05
2023-05-31T05:05:42.177Z,3.70
2023-05-31T05:08:09.365Z,2.60
2023-05-31T05:10:35.921Z,3.30
2023-05-31T05:13:02.499Z,2.95
2023-05-31T05:15:29.066Z,3.20
2023-05-31T05:17:56.121Z,3.28
2023-05-31T05:20:23.030Z,3.28
2023-05-31T05:22:55.758Z,3.20
2023-05-31T05:25:23.621Z,3.08
2023-05-31T05:27:51.203Z,3.33
2023-05-31T05:30:18.379Z,3.20
2023-05-31T05:32:45.261Z,3.97
2023-05-31T05:35:11.880Z,3.60
2023-05-31T05:37:38.910Z,3.50
2023-05-31T05:40:07.853Z,4.55
2023-05-31T05:42:37.650Z,4.07
2023-05-31T05:45:10.845Z,4.60
2023-05-31T05:47:37.961Z,4.75
2023-05-31T05:50:05.151Z,11.10
2023-05-31T05:52:31.781Z,4.30
2023-05-31T05:54:58.557Z,4.68
2023-05-31T05:57:26.212Z,4.88
2023-05-31T05:59:53.640Z,4.32
2023-05-31T06:02:21.569Z,4.90
2023-05-31T06:04:48.277Z,4.63
2023-05-31T06:07:14.981Z,4.40
2023-05-31T06:09:42.158Z,3.97
2023-05-31T06:12:09.428Z,3.83
2023-05-31T06:14:36.363Z,4.85
2023-05-31T06:17:03.087Z,3.85
2023-05-31T06:19:29.796Z,4.28
2023-05-31T06:21:58.916Z,4.45
2023-05-31T06:24:25.625Z,4.82
2023-05-31T06:26:52.221Z,4.35
2023-05-31T06:29:18.942Z,5.22
2023-05-31T06:31:45.552Z,5.28
2023-05-31T06:34:12.124Z,5.53
2023-05-31T06:36:38.985Z,6.22
2023-05-31T06:39:05.548Z,5.80
2023-05-31T06:41:34.206Z,5.50
2023-05-31T06:44:00.927Z,6.15
2023-05-31T06:46:27.574Z,5.65
2023-05-31T06:49:00.628Z,6.45
2023-05-31T06:51:31.939Z,6.03
2023-05-31T06:53:59.318Z,5.40
2023-05-31T06:56:27.516Z,6.40
2023-05-31T06:58:54.105Z,6.25
2023-05-31T07:01:22.941Z,6.18
2023-05-31T07:03:49.582Z,6.47
2023-05-31T07:06:16.381Z,7.03
2023-05-31T07:08:42.959Z,7.50
2023-05-31T07:11:09.532Z,7.05
2023-05-31T07:13:36.150Z,6.88
2023-05-31T07:16:02.741Z,6.90
2023-05-31T07:18:29.367Z,7.32
2023-05-31T07:20:58.446Z,8.52
2023-05-31T07:23:26.197Z,8.30
2023-05-31T07:25:52.962Z,7.88
2023-05-31T07:28:19.602Z,7.80
2023-05-31T07:30:46.362Z,9.20
2023-05-31T07:33:13.081Z,9.18
2023-05-31T07:35:58.334Z,8.50
2023-05-31T07:38:25.438Z,9.15
2023-05-31T07:40:52.117Z,8.38
2023-05-31T07:43:22.342Z,9.00
2023-05-31T07:45:49.741Z,8.50
2023-05-31T07:48:18.210Z,8.95
2023-05-31T07:50:45.663Z,8.15
2023-05-31T07:53:12.456Z,8.40
2023-05-31T07:55:39.256Z,8.95
2023-05-31T07:58:06.555Z,9.90
2023-05-31T08:00:35.192Z,9.88
2023-05-31T08:03:02.504Z,9.50
2023-05-31T08:05:30.005Z,9.85
2023-05-31T08:07:56.655Z,9.90
2023-05-31T08:10:23.271Z,10.93
2023-05-31T08:12:50.405Z,10.05
2023-05-31T08:15:17.112Z,10.48
2023-05-31T08:17:44.526Z,9.77
2023-05-31T08:20:13.261Z,11.32
2023-05-31T08:22:40.304Z,10.23
2023-05-31T08:25:08.348Z,10.07
2023-05-31T08:27:34.957Z,10.93
2023-05-31T08:30:01.758Z,10.88
2023-05-31T08:32:28.436Z,10.63
2023-05-31T08:34:55.059Z,11.95
2023-05-31T08:37:21.689Z,11.57
2023-05-31T08:39:48.389Z,12.63
2023-05-31T08:42:44.172Z,11.02
2023-05-31T08:45:11.758Z,12.45
2023-05-31T08:47:45.252Z,12.43
2023-05-31T08:50:13.560Z,12.38
2023-05-31T08:52:41.038Z,12.15
2023-05-31T08:55:08.859Z,11.20
2023-05-31T08:57:36.748Z,11.65
2023-05-31T09:00:09.598Z,11.52
2023-05-31T09:02:36.702Z,12.10
2023-05-31T09:05:05.203Z,11.95
2023-05-31T09:07:32.039Z,12.65
2023-05-31T09:09:58.693Z,12.98
2023-05-31T09:12:25.448Z,11.80
2023-05-31T09:14:52.783Z,13.07
2023-05-31T09:17:19.451Z,12.88
2023-05-31T09:19:54.195Z,12.30
2023-05-31T09:22:24.050Z,12.70
2023-05-31T09:24:58.155Z,11.23
2023-05-31T09:29:55.111Z,12.00
2023-05-31T09:32:22.281Z,11.10
2023-05-31T09:34:49.066Z,12.60
2023-05-31T09:37:24.340Z,11.90
2023-05-31T09:39:58.340Z,11.30
2023-05-31T09:44:54.931Z,12.05
2023-05-31T09:47:28.399Z,12.57
2023-05-31T09:49:55.903Z,11.95
2023-05-31T09:52:28.849Z,11.55
2023-05-31T09:54:58.015Z,11.40
2023-05-31T09:57:41.830Z,10.68
2023-05-31T10:00:22.263Z,11.80
2023-05-31T10:02:49.108Z,10.70
2023-05-31T10:05:17.483Z,11.70
2023-05-31T10:07:46.333Z,12.02
2023-05-31T10:10:13.149Z,12.05
2023-05-31T10:12:58.182Z,10.07
2023-05-31T10:15:28.358Z,10.65
2023-05-31T10:18:08.282Z,10.73
2023-05-31T10:20:57.252Z,11.07
2023-05-31T10:23:25.635Z,10.70
2023-05-31T10:26:16.280Z,12.30
2023-05-31T10:29:07.633Z,11.88
2023-05-31T10:31:49.681Z,10.38
2023-05-31T10:34:24.283Z,11.07
2023-05-31T10:36:52.810Z,10.60
2023-05-31T10:39:34.010Z,9.10
2023-05-31T10:42:39.320Z,9.70
2023-05-31T10:45:27.778Z,9.68
2023-05-31T10:48:10.514Z,10.13
2023-05-31T10:50:52.593Z,9.68
2023-05-31T10:53:19.236Z,9.93
2023-05-31T10:55:48.561Z,10.18
2023-05-31T10:58:38.951Z,9.80
2023-05-31T11:01:08.925Z,8.60
2023-05-31T11:03:40.298Z,8.20
2023-05-31T11:06:10.326Z,7.93
2023-05-31T11:08:37.889Z,8.20
2023-05-31T11:11:45.744Z,7.90
2023-05-31T11:14:26.976Z,6.93
2023-05-31T11:17:04.865Z,8.75
2023-05-31T11:19:33.518Z,9.77
2023-05-31T11:22:10.359Z,9.10
2023-05-31T11:24:54.227Z,9.10
2023-05-31T11:27:35.198Z,9.13
2023-05-31T11:30:02.867Z,9.10
2023-05-31T11:32:35.394Z,8.73
2023-05-31T11:35:12.361Z,8.13
2023-05-31T11:37:40.909Z,8.48
2023-05-31T11:40:13.026Z,7.93
2023-05-31T11:42:42.490Z,7.82
2023-05-31T11:45:11.509Z,8.23
2023-05-31T11:47:54.396Z,7.07
2023-05-31T11:50:21.692Z,7.45
2023-05-31T11:52:48.464Z,7.85
2023-05-31T11:55:18.846Z,7.40
2023-05-31T11:57:47.968Z,6.88
2023-05-31T12:00:16.532Z,6.65
2023-05-31T12:02:45.594Z,7.47
2023-05-31T12:05:19.076Z,6.07
2023-05-31T12:07:46.628Z,6.40
2023-05-31T12:10:13.556Z,6.95
2023-05-31T12:12:43.456Z,6.88
2023-05-31T12:15:13.599Z,6.95
2023-05-31T12:17:41.252Z,6.53
2023-05-31T12:20:09.242Z,5.80
2023-05-31T12:22:35.982Z,6.82
2023-05-31T12:25:02.638Z,7.13
2023-05-31T12:27:45.545Z,6.78
2023-05-31T12:30:19.357Z,6.25
2023-05-31T12:32:47.213Z,6.67
2023-05-31T12:35:15.650Z,6.80
2023-05-31T12:37:42.624Z,6.18
2023-05-31T12:40:15.350Z,6.60
2023-05-31T12:42:43.777Z,6.65
2023-05-31T12:45:11.176Z,6.47
2023-05-31T12:47:38.315Z,6.15
2023-05-31T12:50:07.932Z,6.07
2023-05-31T12:52:36.804Z,6.53
2023-05-31T12:55:03.689Z,6.00
2023-05-31T12:57:30.496Z,5.82
2023-05-31T13:00:09.213Z,5.53
2023-05-31T13:02:36.076Z,5.47
2023-05-31T13:05:02.832Z,5.60
2023-05-31T13:07:29.710Z,5.68
2023-05-31T13:09:56.762Z,6.15
2023-05-31T13:12:23.347Z,5.70
2023-05-31T13:14:53.128Z,6.18
2023-05-31T13:17:19.916Z,5.20
2023-05-31T13:19:56.796Z,5.07
2023-05-31T13:22:33.606Z,4.20
2023-05-31T13:25:00.336Z,1.95
2023-05-31T13:27:27.023Z,1.95
2023-05-31T13:29:53.646Z,1.60
2023-05-31T13:32:20.319Z,1.83
2023-05-31T13:34:46.887Z,2.00
2023-05-31T13:37:13.518Z,1.58
2023-05-31T13:39:40.080Z,2.30
2023-05-31T13:42:07.888Z,2.15
2023-05-31T13:44:34.525Z,2.28
2023-05-31T13:47:01.372Z,2.58
2023-05-31T13:49:28.011Z,2.17
2023-05-31T13:51:54.645Z,2.35
2023-05-31T13:54:21.390Z,2.08
2023-05-31T13:56:48.201Z,1.90
2023-05-31T13:59:14.813Z,2.22
2023-05-31T14:01:41.462Z,1.67
2023-05-31T14:04:08.792Z,1.90
2023-05-31T14:06:37.053Z,2.55
2023-05-31T14:09:03.701Z,2.35
2023-05-31T14:11:31.033Z,2.67
2023-05-31T14:13:57.641Z,1.85
2023-05-31T14:16:24.680Z,1.50
2023-05-31T14:18:53.527Z,2.10
2023-05-31T14:21:22.192Z,2.10
2023-05-31T14:23:48.761Z,2.33
2023-05-31T14:26:15.383Z,1.67
2023-05-31T14:28:41.975Z,1.90
2023-05-31T14:31:08.637Z,1.65
2023-05-31T14:33:35.281Z,2.05
2023-05-31T14:36:02.404Z,2.28
2023-05-31T14:38:35.007Z,2.08
2023-05-31T14:41:02.662Z,1.98
2023-05-31T14:43:29.428Z,2.13
2023-05-31T14:45:56.091Z,2.20
2023-05-31T14:48:22.853Z,2.60
2023-05-31T14:50:49.438Z,3.67
2023-05-31T14:53:16.238Z,1.95
2023-05-31T14:55:42.821Z,2.88
2023-05-31T14:58:11.001Z,2.60
2023-05-31T15:00:37.836Z,3.50
2023-05-31T15:03:04.459Z,2.65
2023-05-31T15:05:31.156Z,2.38
2023-05-31T15:07:57.811Z,1.85
2023-05-31T15:10:27.286Z,2.03
2023-05-31T15:12:54.340Z,1.77
2023-05-31T15:15:21.042Z,2.00
2023-05-31T15:17:47.904Z,1.83
2023-05-31T15:20:14.608Z,2.15
2023-05-31T15:22:41.304Z,1.73
2023-05-31T15:25:08.393Z,2.03
2023-05-31T15:27:34.974Z,1.60
2023-05-31T15:30:01.665Z,1.70
2023-05-31T15:32:28.276Z,1.60
2023-05-31T15:34:55.319Z,2.25
2023-05-31T15:37:22.715Z,2.75
2023-05-31T15:39:49.315Z,1.90
2023-05-31T15:42:15.947Z,1.83
2023-05-31T15:44:42.520Z,1.75
2023-05-31T15:47:09.341Z,4.22
2023-05-31T15:49:37.183Z,1.60
2023-05-31T15:52:03.994Z,1.67
2023-05-31T15:54:30.551Z,1.52
2023-05-31T15:56:57.356Z,1.63
2023-05-31T15:59:24.035Z,1.42
2023-05-31T16:01:52.677Z,1.70
2023-05-31T16:04:19.320Z,1.60
2023-05-31T16:06:45.955Z,1.83
2023-05-31T16:09:12.636Z,1.92
2023-05-31T16:11:39.868Z,2.33
2023-05-31T16:14:06.485Z,2.25
2023-05-31T16:16:34.786Z,2.22
2023-05-31T16:19:01.409Z,2.08
2023-05-31T16:21:28.139Z,2.00
2023-05-31T16:23:54.792Z,2.47
2023-05-31T16:26:22.019Z,2.25
2023-05-31T16:28:49.706Z,2.42
2023-05-31T16:31:17.590Z,2.55
2023-05-31T16:33:45.881Z,4.97
2023-05-31T16:36:12.518Z,7.47
2023-05-31T16:38:39.094Z,5.07
2023-05-31T16:41:05.782Z,3.50
2023-05-31T16:43:32.348Z,4.18
2023-05-31T16:45:59.585Z,6.10
2023-05-31T16:48:26.506Z,5.78
2023-05-31T16:50:53.203Z,4.88
2023-05-31T16:53:21.439Z,4.65
2023-05-31T16:55:48.153Z,4.97
2023-05-31T16:58:14.795Z,5.13
2023-05-31T17:00:43.791Z,4.57
2023-05-31T17:03:10.592Z,4.88
2023-05-31T17:05:37.426Z,4.40
2023-05-31T17:08:04.225Z,4.05
2023-05-31T17:10:31.218Z,5.43
2023-05-31T17:12:58.195Z,4.70
2023-05-31T17:15:24.778Z,4.47
2023-05-31T17:17:52.442Z,4.40
2023-05-31T17:20:19.079Z,4.22
2023-05-31T17:22:45.721Z,4.13
2023-05-31T17:25:12.343Z,3.55
2023-05-31T17:27:39.052Z,3.60
2023-05-31T17:30:06.376Z,3.70
2023-05-31T17:32:32.949Z,3.75
2023-05-31T17:34:59.815Z,3.83
2023-05-31T17:37:26.436Z,3.83
2023-05-31T17:39:53.044Z,4.00
2023-05-31T17:42:22.024Z,3.97
2023-05-31T17:44:48.560Z,4.82
2023-05-31T17:47:15.280Z,3.67
2023-05-31T17:49:41.888Z,8.63
2023-05-31T17:52:08.677Z,5.32
2023-05-31T17:54:36.075Z,5.93
2023-05-31T17:57:59.339Z,6.07
2023-05-31T18:01:24.518Z,5.38
2023-05-31T18:04:49.709Z,5.25
2023-05-31T18:08:14.780Z,6.80
2023-05-31T18:11:40.341Z,7.20
2023-05-31T18:14:20.271Z,7.18
2023-05-31T18:16:50.360Z,8.30
2023-05-31T18:19:16.907Z,7.40
2023-05-31T18:21:45.397Z,6.68
2023-05-31T18:24:14.368Z,7.93
2023-05-31T18:26:41.128Z,8.98
2023-05-31T18:29:09.816Z,8.43
2023-05-31T18:31:38.582Z,8.05
2023-05-31T18:34:05.343Z,9.90
2023-05-31T18:36:31.904Z,8.25
2023-05-31T18:38:59.703Z,6.35
2023-05-31T18:41:27.763Z,6.20
2023-05-31T18:43:54.544Z,5.72
2023-05-31T18:46:21.317Z,5.75
2023-05-31T18:48:48.244Z,5.60
2023-05-31T18:51:14.803Z,6.05
2023-05-31T18:53:41.392Z,5.00
2023-05-31T18:56:08.006Z,4.85
2023-05-31T18:58:34.711Z,5.03
2023-05-31T19:01:02.273Z,4.90
2023-05-31T19:03:29.179Z,6.00
2023-05-31T19:05:56.808Z,5.07
2023-05-31T19:08:23.502Z,5.10
2023-05-31T19:10:50.162Z,4.38
2023-05-31T19:13:16.802Z,5.88
2023-05-31T19:15:43.648Z,5.22
2023-05-31T19:20:48.622Z,6.13
2023-05-31T19:23:16.944Z,6.95
2023-05-31T19:25:43.930Z,6.38
2023-05-31T19:28:11.432Z,6.55
2023-05-31T19:30:38.493Z,7.38
2023-05-31T19:33:05.226Z,7.00
2023-05-31T19:35:32.092Z,6.97
2023-05-31T19:37:58.759Z,7.10
2023-05-31T19:40:25.713Z,7.18
2023-05-31T19:42:52.913Z,7.38
2023-05-31T19:45:20.244Z,8.30
2023-05-31T19:47:49.944Z,7.32
2023-05-31T19:50:17.162Z,7.20
2023-05-31T19:52:49.788Z,8.23
2023-05-31T19:55:16.564Z,6.97
2023-05-31T19:57:43.123Z,5.82
2023-05-31T20:00:10.322Z,5.28
2023-05-31T20:02:37.149Z,5.32
2023-05-31T20:05:04.315Z,5.32
2023-05-31T20:07:30.924Z,6.43
2023-05-31T20:09:57.668Z,5.70
2023-05-31T20:12:25.026Z,5.88
2023-05-31T20:14:51.710Z,7.00
2023-05-31T20:17:18.439Z,6.65
2023-05-31T20:19:45.123Z,6.38
2023-05-31T20:22:11.979Z,6.68
2023-05-31T20:24:38.573Z,6.35
2023-05-31T20:27:06.563Z,6.00
2023-05-31T20:29:33.235Z,6.22
2023-05-31T20:31:59.936Z,5.78
2023-05-31T20:34:26.939Z,5.90
2023-05-31T20:36:53.836Z,6.10
2023-05-31T20:39:20.549Z,5.70
2023-05-31T20:41:47.235Z,5.38
2023-05-31T20:44:13.932Z,5.95
2023-05-31T20:46:40.919Z,5.72
2023-05-31T20:49:08.281Z,4.80
2023-05-31T20:51:35.720Z,5.90
2023-05-31T20:54:02.875Z,5.03
2023-05-31T20:56:30.078Z,5.55
2023-05-31T20:58:57.199Z,5.47
2023-05-31T21:01:23.887Z,5.68
2023-05-31T21:03:51.587Z,6.30
2023-05-31T21:06:18.400Z,6.20
2023-05-31T21:08:45.086Z,5.93
2023-05-31T21:11:11.689Z,6.38
2023-05-31T21:13:38.672Z,6.72
2023-05-31T21:16:05.660Z,7.75
2023-05-31T21:18:32.330Z,7.85
2023-05-31T21:21:00.964Z,7.68
2023-05-31T21:23:27.590Z,6.93
2023-05-31T21:25:54.168Z,6.75
2023-05-31T21:28:20.921Z,6.65
2023-05-31T21:30:48.446Z,6.68
2023-05-31T21:33:15.215Z,6.97
2023-05-31T21:35:41.929Z,6.43
2023-05-31T21:38:09.512Z,6.82
2023-05-31T21:40:36.120Z,8.07
2023-05-31T21:43:02.707Z,7.63
2023-05-31T21:45:29.289Z,7.22
2023-05-31T21:47:55.876Z,7.22
2023-05-31T21:50:22.546Z,7.65
2023-05-31T21:52:49.395Z,8.02
2023-05-31T21:55:16.130Z,8.05
2023-05-31T21:57:42.733Z,7.82
2023-05-31T22:00:12.093Z,7.60
2023-05-31T22:02:38.790Z,7.93
2023-05-31T22:05:05.979Z,8.73
2023-05-31T22:07:37.414Z,7.80
2023-05-31T22:10:05.868Z,7.80
2023-05-31T22:12:32.769Z,8.55
2023-05-31T22:15:00.388Z,8.55
2023-05-31T22:17:27.810Z,7.72
2023-05-31T22:20:00.952Z,7.72
2023-05-31T22:22:29.379Z,7.70
2023-05-31T22:25:09.245Z,8.25
2023-05-31T22:27:39.932Z,7.75
2023-05-31T22:30:07.036Z,9.00
2023-05-31T22:32:33.724Z,9.77
2023-05-31T22:35:00.314Z,10.35
2023-05-31T22:37:26.893Z,10.50
2023-05-31T22:39:53.522Z,10.07
2023-05-31T22:42:20.163Z,10.55
2023-05-31T22:44:46.744Z,10.43
2023-05-31T22:47:13.446Z,10.68
2023-05-31T22:49:40.144Z,9.68
2023-05-31T22:52:07.151Z,10.15
2023-05-31T22:54:33.831Z,9.80
2023-05-31T22:57:00.595Z,10.20
2023-05-31T22:59:27.460Z,9.50
2023-05-31T23:01:54.092Z,8.23
2023-05-31T23:04:20.715Z,9.77
2023-05-31T23:06:47.401Z,9.70
2023-05-31T23:09:15.752Z,8.80
2023-05-31T23:11:46.151Z,8.80
2023-05-31T23:14:13.403Z,8.25
2023-05-31T23:16:42.493Z,7.95
2023-05-31T23:19:10.357Z,7.72
2023-05-31T23:21:41.034Z,7.75
2023-05-31T23:24:08.597Z,9.57
2023-05-31T23:26:35.705Z,9.45
2023-05-31T23:29:03.682Z,8.73
2023-05-31T23:31:30.783Z,9.07
2023-05-31T23:33:58.624Z,8.88
2023-05-31T23:36:25.976Z,8.65
2023-05-31T23:38:53.054Z,8.50
2023-05-31T23:41:19.947Z,8.50
2023-05-31T23:43:47.424Z,7.15
2023-05-31T23:46:14.074Z,8.38
2023-05-31T23:48:41.014Z,7.85
2023-05-31T23:51:08.478Z,8.75
2023-05-31T23:53:35.703Z,7.95
2023-05-31T23:56:02.382Z,8.43
2023-05-31T23:58:29.011Z,8.57
